Time;durP1;ratioP1;P1;durP2;ratioP2;P2;SDS_P1;SDS_P2;PMS_P1;PMS_P2;Temp;Humidity;BMP_temperature;BMP_pressure;BME280_temperature;BME280_humidity;BME280_pressure;Samples;Min_cycle;Max_cycle;Signal;HPM_P1;HPM_P2
2024/04/06 00:02:06;;;;;;;2.60;1.88;;;;;;;16.01;100.00;100246.63;7389083;19;20013;-75
2024/04/06 00:04:34;;;;;;;4.13;2.35;;;;;;;16.12;100.00;100266.25;7397221;19;20011;-75
2024/04/06 00:07:00;;;;;;;4.63;2.08;;;;;;;16.15;100.00;100275.84;7396476;19;20022;-75
2024/04/06 00:09:25;;;;;;;4.68;2.42;;;;;;;15.76;100.00;100208.28;7416661;19;20007;-77
2024/04/06 00:11:51;;;;;;;2.55;1.83;;;;;;;16.07;100.00;100262.19;7393714;19;20085;-75
2024/04/06 00:14:19;;;;;;;2.40;1.77;;;;;;;16.04;100.00;100257.94;7419064;19;20007;-76
2024/04/06 00:16:46;;;;;;;3.67;1.83;;;;;;;15.93;100.00;100232.94;7416683;19;20011;-75
2024/04/06 00:19:12;;;;;;;2.22;1.70;;;;;;;16.14;100.00;100266.13;7400840;19;20113;-76
2024/04/06 00:21:38;;;;;;;5.70;1.90;;;;;;;16.09;100.00;100258.44;7396184;19;20010;-74
2024/04/06 00:24:04;;;;;;;3.50;1.73;;;;;;;15.86;100.00;100216.53;7396181;19;20018;-75
2024/04/06 00:26:30;;;;;;;3.10;1.77;;;;;;;15.86;100.00;100203.16;7402844;19;20014;-75
2024/04/06 00:28:55;;;;;;;4.05;1.55;;;;;;;16.10;100.00;100245.94;7393120;19;20022;-76
2024/04/06 00:31:21;;;;;;;5.20;1.77;;;;;;;16.12;100.00;100258.22;7387617;19;20011;-77
2024/04/06 00:33:47;;;;;;;3.42;1.65;;;;;;;15.94;100.00;100223.97;7391018;19;20011;-76
2024/04/06 00:36:12;;;;;;;2.72;1.58;;;;;;;16.12;100.00;100246.69;7391690;19;20011;-75
2024/04/06 00:38:38;;;;;;;2.67;1.80;;;;;;;15.90;100.00;100209.16;7391945;19;20014;-75
2024/04/06 00:41:03;;;;;;;2.90;1.50;;;;;;;15.90;100.00;100217.97;7389882;19;20034;-76
2024/04/06 00:43:31;;;;;;;4.05;1.88;;;;;;;16.05;100.00;100253.44;7393602;19;20014;-75
2024/04/06 00:45:56;;;;;;;3.38;1.75;;;;;;;16.00;100.00;100243.09;7395185;19;20006;-77
2024/04/06 00:48:22;;;;;;;2.78;1.80;;;;;;;16.04;100.00;100252.59;7393611;19;20398;-74
2024/04/06 00:50:51;;;;;;;3.67;1.83;;;;;;;15.92;100.00;100232.09;7388852;19;20011;-75
2024/04/06 00:53:17;;;;;;;4.95;2.20;;;;;;;15.84;100.00;100228.28;7387508;19;20034;-75
2024/04/06 00:55:44;;;;;;;5.20;2.13;;;;;;;16.01;100.00;100267.97;7390506;19;20007;-76
2024/04/06 00:58:10;;;;;;;3.80;1.63;;;;;;;15.94;100.00;100251.53;7388720;19;20010;-75
2024/04/06 01:00:36;;;;;;;2.30;1.60;;;;;;;16.02;100.00;100261.69;7389319;19;20079;-78
2024/04/06 01:03:05;;;;;;;2.40;1.75;;;;;;;15.99;100.00;100270.75;7389312;19;20475;-75
2024/04/06 01:05:30;;;;;;;2.85;1.70;;;;;;;15.94;100.00;100256.00;7391557;19;20835;-75
2024/04/06 01:07:57;;;;;;;3.20;1.70;;;;;;;16.04;100.00;100275.78;7390315;19;20018;-77
2024/04/06 01:10:24;;;;;;;2.63;1.90;;;;;;;15.98;100.00;100260.19;7388040;19;20131;-76
2024/04/06 01:12:49;;;;;;;4.00;1.52;;;;;;;15.90;100.00;100243.88;7387559;19;20006;-75
2024/04/06 01:15:15;;;;;;;3.67;1.88;;;;;;;16.02;100.00;100261.69;7389504;19;20014;-76
2024/04/06 01:17:41;;;;;;;3.08;1.85;;;;;;;15.82;100.00;100225.72;7390331;19;20018;-76
2024/04/06 01:20:07;;;;;;;5.30;2.03;;;;;;;15.87;100.00;100233.41;7390349;19;20018;-74
2024/04/06 01:22:34;;;;;;;3.75;1.80;;;;;;;16.00;100.00;100250.25;7386388;19;20091;-76
2024/04/06 01:24:59;;;;;;;4.32;1.83;;;;;;;15.56;100.00;100178.66;7392035;19;20345;-74
2024/04/06 01:27:25;;;;;;;4.38;1.70;;;;;;;15.57;100.00;100180.38;7390705;19;20017;-75
2024/04/06 01:29:51;;;;;;;2.58;1.52;;;;;;;15.93;100.00;100236.47;7386642;19;20026;-77
2024/04/06 01:32:17;;;;;;;3.40;1.80;;;;;;;15.61;100.00;100193.38;7387143;19;20026;-74
2024/04/06 01:34:44;;;;;;;3.05;1.88;;;;;;;15.58;100.00;100206.97;7390070;19;20032;-75
2024/04/06 01:37:09;;;;;;;5.18;2.30;;;;;;;15.79;100.00;100250.81;7392514;19;19999;-75
2024/04/06 01:39:35;;;;;;;3.33;2.10;;;;;;;15.41;100.00;100178.75;7389503;19;20039;-75
2024/04/06 01:42:02;;;;;;;3.05;1.73;;;;;;;15.61;100.00;100212.06;7383783;19;20030;-76
2024/04/06 01:44:27;;;;;;;5.70;2.33;;;;;;;15.62;100.00;100215.56;7391318;19;20043;-75
2024/04/06 01:46:53;;;;;;;3.40;2.20;;;;;;;15.66;100.00;100235.75;7391898;19;20014;-75
2024/04/06 01:49:19;;;;;;;4.75;2.28;;;;;;;15.55;100.00;100227.63;7391500;19;20368;-76
2024/04/06 01:51:45;;;;;;;5.80;2.42;;;;;;;15.57;100.00;100228.41;7386120;19;20363;-74
2024/04/06 01:54:10;;;;;;;5.90;2.42;;;;;;;15.54;100.00;100221.44;7389851;19;20038;-74
2024/04/06 01:56:35;;;;;;;4.30;2.15;;;;;;;15.56;100.00;100226.72;7390160;19;20014;-74
2024/04/06 01:59:02;;;;;;;3.85;2.47;;;;;;;15.46;100.00;100218.44;7388093;19;20018;-75
2024/04/06 02:01:28;;;;;;;4.25;2.28;;;;;;;15.40;100.00;100224.22;7384296;19;20046;-76
2024/04/06 02:03:54;;;;;;;5.20;2.42;;;;;;;15.39;100.00;100236.72;7389612;19;20444;-75
2024/04/06 02:06:19;;;;;;;3.42;2.08;;;;;;;15.21;100.00;100224.63;7388579;19;20043;-78
2024/04/06 02:08:45;;;;;;;4.82;2.22;;;;;;;15.11;100.00;100212.88;7386274;19;20029;-74
2024/04/06 02:11:10;;;;;;;3.75;2.10;;;;;;;15.06;100.00;100220.34;7386355;19;20382;-75
2024/04/06 02:13:36;;;;;;;6.35;2.80;;;;;;;15.16;100.00;100245.44;7383636;19;20011;-76
2024/04/06 02:16:02;;;;;;;4.13;2.22;;;;;;;14.84;100.00;100204.94;7388816;19;20015;-75
2024/04/06 02:18:28;;;;;;;5.25;2.40;;;;;;;14.80;100.00;100206.09;7388702;19;20025;-76
2024/04/06 02:20:53;;;;;;;4.07;2.42;;;;;;;14.88;100.00;100232.25;7386446;19;20003;-75
2024/04/06 02:23:19;;;;;;;4.57;2.50;;;;;;;14.67;100.00;100215.88;7384885;19;20010;-76
2024/04/06 02:25:45;;;;;;;4.50;2.42;;;;;;;14.43;100.00;100185.53;7388849;19;20025;-75
2024/04/06 02:28:10;;;;;;;5.03;2.30;;;;;;;14.51;100.00;100207.19;7388279;19;20022;-76
2024/04/06 02:30:37;;;;;;;6.30;2.30;;;;;;;14.55;100.00;100219.38;7384669;19;20023;-75
2024/04/06 02:33:04;;;;;;;4.63;2.20;;;;;;;14.52;100.00;100217.75;7384128;19;20019;-76
2024/04/06 02:35:30;;;;;;;3.70;2.30;;;;;;;14.34;100.00;100205.59;7388217;19;20116;-75
2024/04/06 02:37:55;;;;;;;7.47;2.80;;;;;;;14.30;100.00;100236.09;7387889;19;20034;-75
2024/04/06 02:40:21;;;;;;;5.50;2.50;;;;;;;13.94;100.00;100191.38;7385671;19;20072;-76
2024/04/06 02:42:47;;;;;;;7.18;2.33;;;;;;;13.77;100.00;100181.78;7392463;19;20018;-75
2024/04/06 02:45:13;;;;;;;3.53;2.00;;;;;;;13.98;100.00;100216.84;7393426;19;20496;-75
2024/04/06 02:47:39;;;;;;;3.70;2.50;;;;;;;14.12;100.00;100267.41;7393879;19;20022;-75
2024/04/06 02:50:05;;;;;;;4.82;2.50;;;;;;;13.95;100.00;100251.66;7388154;19;20129;-75
2024/04/06 02:52:31;;;;;;;4.93;2.55;;;;;;;13.84;100.00;100264.78;7392429;19;20031;-75
2024/04/06 02:54:56;;;;;;;5.30;2.40;;;;;;;13.83;100.00;100261.25;7396643;19;20014;-76
2024/04/06 02:57:23;;;;;;;3.88;2.35;;;;;;;13.89;100.00;100278.63;7394220;19;20014;-75
2024/04/06 02:59:49;;;;;;;6.03;2.83;;;;;;;13.81;100.00;100264.97;7394800;19;20472;-75
2024/04/06 03:02:15;;;;;;;4.38;2.60;;;;;;;13.78;100.00;100260.69;7366179;19;20013;-76
2024/04/06 03:04:41;;;;;;;5.55;2.40;;;;;;;13.88;100.00;100277.78;7393837;19;20094;-76
2024/04/06 03:07:07;;;;;;;5.32;2.67;;;;;;;13.61;100.00;100237.78;7393609;19;20002;-76
2024/04/06 03:09:35;;;;;;;4.93;2.60;;;;;;;13.81;100.00;100271.16;7394342;19;20458;-76
2024/04/06 03:12:05;;;;;;;5.82;2.83;;;;;;;13.54;100.00;100215.16;7390127;19;20015;-76
2024/04/06 03:14:31;;;;;;;3.92;2.47;;;;;;;13.84;100.00;100270.09;7391472;19;20103;-76
2024/04/06 03:16:57;;;;;;;4.40;2.70;;;;;;;13.73;100.00;100252.13;7393085;19;20031;-76
2024/04/06 03:19:24;;;;;;;5.25;2.80;;;;;;;13.65;100.00;100238.44;7394489;19;20035;-77
2024/04/06 03:21:50;;;;;;;4.18;2.53;;;;;;;13.78;100.00;100263.34;7390645;19;20524;-75
2024/04/06 03:24:15;;;;;;;3.70;2.88;;;;;;;13.69;100.00;100248.78;7391020;19;20022;-76
2024/04/06 03:26:44;;;;;;;4.07;3.00;;;;;;;13.62;100.00;100244.81;7394488;19;20018;-75
2024/04/06 03:29:11;;;;;;;5.28;2.80;;;;;;;13.54;100.00;100241.75;7392567;19;20010;-74
2024/04/06 03:31:37;;;;;;;6.60;3.08;;;;;;;13.63;100.00;100251.00;7390228;19;20014;-74
2024/04/06 03:34:02;;;;;;;4.60;2.50;;;;;;;13.55;100.00;100231.97;7390968;19;20025;-75
2024/04/06 03:36:29;;;;;;;4.07;2.42;;;;;;;13.62;100.00;100250.13;7391804;19;20018;-75
2024/04/06 03:38:55;;;;;;;4.95;2.60;;;;;;;13.36;100.00;100211.00;7394534;19;20006;-75
2024/04/06 03:41:22;;;;;;;5.05;2.83;;;;;;;13.38;100.00;100225.03;7392589;19;20010;-74
2024/04/06 03:43:49;;;;;;;7.78;3.38;;;;;;;13.41;100.00;100224.84;7391723;19;20672;-74
2024/04/06 03:46:15;;;;;;;4.38;2.75;;;;;;;13.32;100.00;100223.63;7392756;19;20007;-75
2024/04/06 03:48:41;;;;;;;5.47;3.00;;;;;;;13.46;100.00;100249.38;7394174;19;20252;-75
2024/04/06 03:51:08;;;;;;;5.20;2.83;;;;;;;13.34;100.00;100224.38;7392122;19;20015;-74
2024/04/06 03:53:38;;;;;;;5.30;2.67;;;;;;;13.34;100.00;100235.03;7388782;19;20110;-75
2024/04/06 03:56:05;;;;;;;6.30;2.67;;;;;;;13.41;100.00;100235.47;7392538;19;20014;-75
2024/04/06 03:58:30;;;;;;;3.60;2.50;;;;;;;13.20;100.00;100199.56;7396743;19;20043;-74
2024/04/06 04:00:56;;;;;;;5.53;3.20;;;;;;;13.57;100.00;100257.53;7393125;19;20118;-76
2024/04/06 04:03:22;;;;;;;3.33;2.60;;;;;;;13.68;100.00;100264.88;7389400;19;20094;-75
2024/04/06 04:05:48;;;;;;;6.45;2.83;;;;;;;13.82;100.00;100286.16;7393321;19;20436;-75
2024/04/06 04:08:14;;;;;;;3.47;2.60;;;;;;;13.50;100.00;100240.25;7393238;19;20018;-78
2024/04/06 04:10:40;;;;;;;6.40;3.55;;;;;;;13.53;100.00;100258.69;7392899;19;20122;-75
2024/04/06 04:13:12;;;;;;;6.45;3.50;;;;;;;13.66;100.00;100296.91;7390171;19;20035;-74
2024/04/06 04:15:42;;;;;;;5.75;3.35;;;;;;;13.56;100.00;100293.06;7392471;19;20352;-76
2024/04/06 04:18:08;;;;;;;5.33;3.07;;;;;;;13.47;100.00;100300.75;7391123;19;20015;-75
2024/04/06 04:20:35;;;;;;;4.80;3.20;;;;;;;13.27;100.00;100278.00;7391692;19;20079;-75
2024/04/06 04:23:02;;;;;;;5.75;2.90;;;;;;;13.35;100.00;100299.69;7390478;19;20017;-74
2024/04/06 04:25:28;;;;;;;4.47;2.83;;;;;;;13.04;100.00;100257.25;7393848;19;20010;-76
2024/04/06 04:27:57;;;;;;;5.85;3.40;;;;;;;13.11;100.00;100277.19;7393596;19;20018;-75
2024/04/06 04:30:23;;;;;;;4.93;3.03;;;;;;;12.95;100.00;100243.53;7391977;19;20007;-74
2024/04/06 04:32:51;;;;;;;5.45;3.33;;;;;;;13.23;100.00;100287.97;7388814;19;20018;-75
2024/04/06 04:35:17;;;;;;;4.03;2.70;;;;;;;13.06;100.00;100264.19;7391620;19;20014;-75
2024/04/06 04:37:43;;;;;;;3.90;2.60;;;;;;;13.28;100.00;100293.88;7393012;19;20695;-76
2024/04/06 04:40:11;;;;;;;4.53;2.92;;;;;;;13.33;100.00;100296.28;7391076;19;20014;-75
2024/04/06 04:42:37;;;;;;;5.60;2.63;;;;;;;13.39;100.00;100295.88;7387620;19;20342;-75
2024/04/06 04:45:09;;;;;;;4.70;3.15;;;;;;;13.23;100.00;100266.69;7390699;19;20018;-76
2024/04/06 04:47:35;;;;;;;4.10;2.60;;;;;;;13.32;100.00;100286.59;7390313;19;20471;-75
2024/04/06 04:50:03;;;;;;;5.75;2.97;;;;;;;13.34;100.00;100282.03;7388609;19;20042;-75
2024/04/06 04:52:29;;;;;;;4.13;2.83;;;;;;;13.49;100.00;100305.03;7387324;19;20006;-76
2024/04/06 04:54:54;;;;;;;5.60;3.08;;;;;;;13.26;100.00;100266.53;7387338;19;20377;-75
2024/04/06 04:57:20;;;;;;;4.85;2.70;;;;;;;13.49;100.00;100302.38;7389546;19;20028;-74
2024/04/06 04:59:47;;;;;;;6.50;2.70;;;;;;;13.58;100.00;100312.47;7390186;19;20488;-75
2024/04/06 05:02:14;;;;;;;4.78;2.83;;;;;;;13.56;100.00;100298.38;7388541;19;20061;-77
2024/04/06 05:04:40;;;;;;;3.92;2.35;;;;;;;13.26;100.00;100252.38;7389274;19;20011;-75
2024/04/06 05:07:05;;;;;;;6.53;2.83;;;;;;;13.20;100.00;100242.13;7391857;19;20078;-75
2024/04/06 05:09:32;;;;;;;5.93;2.63;;;;;;;13.68;100.00;100318.09;7391028;19;20150;-75
2024/04/06 05:11:57;;;;;;;2.90;2.40;;;;;;;13.59;100.00;100295.53;7389673;19;20022;-75
2024/04/06 05:14:23;;;;;;;4.70;2.60;;;;;;;13.63;100.00;100297.09;7386473;19;20010;-75
2024/04/06 05:16:49;;;;;;;4.63;2.70;;;;;;;13.73;100.00;100296.50;7391089;19;20010;-75
2024/04/06 05:19:16;;;;;;;6.13;2.80;;;;;;;13.79;100.00;100315.63;7391401;19;20026;-75
2024/04/06 05:21:41;;;;;;;3.65;2.42;;;;;;;13.80;100.00;100312.00;7387647;19;20026;-76
2024/04/06 05:24:07;;;;;;;4.22;2.08;;;;;;;13.77;100.00;100303.34;7387026;19;20013;-76
2024/04/06 05:26:33;;;;;;;4.75;2.13;;;;;;;13.81;100.00;100310.22;7390960;19;20025;-75
2024/04/06 05:28:58;;;;;;;4.55;2.03;;;;;;;13.97;100.00;100329.59;7391464;19;20036;-75
2024/04/06 05:31:23;;;;;;;5.78;2.22;;;;;;;14.03;100.00;100323.88;7389724;19;20022;-74
2024/04/06 05:33:49;;;;;;;4.72;2.10;;;;;;;13.88;100.00;100300.88;7388331;19;20010;-75
2024/04/06 05:36:16;;;;;;;4.53;2.30;;;;;;;13.68;100.00;100257.75;7390566;19;20013;-75
2024/04/06 05:38:43;;;;;;;3.20;2.20;;;;;;;13.92;100.00;100292.63;7389363;19;20011;-75
2024/04/06 05:41:09;;;;;;;6.03;2.28;;;;;;;14.04;100.00;100309.63;7388834;19;20039;-75
2024/04/06 05:43:35;;;;;;;3.15;1.60;;;;;;;13.81;100.00;100255.19;7387854;19;20022;-75
2024/04/06 05:46:04;;;;;;;3.83;2.00;;;;;;;14.21;100.00;100316.56;7387979;19;20006;-76
2024/04/06 05:48:30;;;;;;;3.85;1.90;;;;;;;14.14;100.00;100296.59;7385359;19;20007;-76
2024/04/06 05:50:57;;;;;;;2.58;1.48;;;;;;;14.41;100.00;100333.97;7386941;19;20014;-75
2024/04/06 05:53:23;;;;;;;4.30;2.05;;;;;;;14.47;100.00;100339.78;7387298;19;20029;-77
2024/04/06 05:55:49;;;;;;;3.47;1.83;;;;;;;14.56;100.00;100330.31;7389172;19;20011;-75
2024/04/06 05:58:14;;;;;;;4.70;1.88;;;;;;;14.47;100.00;100301.63;7389167;19;20018;-74
2024/04/06 06:00:40;;;;;;;2.25;1.38;;;;;;;13.84;100.00;100182.28;7387376;19;20018;-75
2024/04/06 06:03:05;;;;;;;6.78;1.90;;;;;;;14.39;100.00;100262.97;7387938;19;20011;-74
2024/04/06 06:05:31;;;;;;;3.95;1.60;;;;;;;14.77;100.00;100322.75;7389246;19;20007;-76
2024/04/06 06:07:57;;;;;;;3.85;1.80;;;;;;;14.84;100.00;100327.56;7390437;19;20032;-76
2024/04/06 06:10:22;;;;;;;3.45;1.50;;;;;;;14.69;100.00;100292.13;7367225;19;20460;-76
2024/04/06 06:12:48;;;;;;;3.35;1.83;;;;;;;14.78;100.00;100304.00;7388777;19;20694;-76
2024/04/06 06:15:13;;;;;;;5.30;2.00;;;;;;;14.93;100.00;100321.66;7387182;19;20010;-77
2024/04/06 06:17:40;;;;;;;4.45;1.95;;;;;;;14.91;100.00;100312.91;7389082;19;20010;-76
2024/04/06 06:20:07;;;;;;;5.25;2.05;;;;;;;15.17;100.00;100339.63;7389959;19;20039;-75
2024/04/06 06:22:33;;;;;;;5.05;1.70;;;;;;;15.19;100.00;100337.72;7386983;19;20026;-76
2024/04/06 06:24:58;;;;;;;3.88;1.92;;;;;;;15.37;100.00;100353.34;7386762;19;20014;-77
2024/04/06 06:27:24;;;;;;;2.63;1.80;;;;;;;15.48;100.00;100357.09;7388157;19;20108;-76
2024/04/06 06:29:50;;;;;;;4.32;2.00;;;;;;;15.58;100.00;100353.75;7388315;19;20003;-76
2024/04/06 06:32:16;;;;;;;3.17;1.77;;;;;;;15.54;100.00;100333.53;7385878;19;20070;-75
2024/04/06 06:34:43;;;;;;;2.85;1.70;;;;;;;15.71;100.00;100332.41;7386777;19;20014;-75
2024/04/06 06:37:08;;;;;;;2.72;1.65;;;;;;;15.93;100.00;100358.47;7388380;19;20010;-75
2024/04/06 06:39:34;;;;;;;3.25;1.50;;;;;;;16.03;100.00;100351.53;7386663;19;20034;-75
2024/04/06 06:42:00;;;;;;;4.43;1.65;;;;;;;16.07;97.58;100328.97;7387588;19;20010;-76
2024/04/06 06:44:25;;;;;;;4.10;1.50;;;;;;;16.29;98.00;100339.84;7387812;19;20020;-76
2024/04/06 06:46:51;;;;;;;2.85;1.50;;;;;;;16.51;95.90;100336.50;7388334;19;20030;-75
2024/04/06 06:49:17;;;;;;;3.50;1.60;;;;;;;16.68;89.14;100329.94;7387220;19;20015;-75
2024/04/06 06:51:42;;;;;;;5.93;1.60;;;;;;;16.79;84.86;100338.88;7381774;19;20034;-75
2024/04/06 06:54:08;;;;;;;2.67;1.50;;;;;;;17.05;86.97;100357.50;7384293;19;20011;-75
2024/04/06 06:56:34;;;;;;;2.35;1.50;;;;;;;17.28;83.43;100364.66;7386914;19;20026;-76
2024/04/06 06:59:00;;;;;;;5.05;2.08;;;;;;;16.35;78.80;100184.41;7388063;19;20018;-76
2024/04/06 07:01:25;;;;;;;3.50;1.60;;;;;;;17.44;79.54;100369.72;7385974;19;20049;-74
2024/04/06 07:03:52;;;;;;;4.00;1.70;;;;;;;17.38;80.48;100336.22;7385873;19;20037;-75
2024/04/06 07:06:19;;;;;;;4.05;1.40;;;;;;;17.41;79.08;100313.72;7386582;19;20010;-76
2024/04/06 07:08:45;;;;;;;3.58;1.40;;;;;;;17.82;77.65;100353.41;7387462;19;20397;-75
2024/04/06 07:11:12;;;;;;;3.85;1.33;;;;;;;17.90;74.94;100360.84;7385988;19;20336;-76
2024/04/06 07:13:37;;;;;;;2.90;1.67;;;;;;;16.65;72.08;100178.63;7383823;19;20039;-75
2024/04/06 07:16:08;;;;;;;3.35;1.58;;;;;;;17.71;72.01;100373.00;7386928;19;20022;-75
2024/04/06 07:18:35;;;;;;;4.47;1.90;;;;;;;17.78;76.96;100366.19;7385137;19;20486;-76
2024/04/06 07:21:01;;;;;;;6.10;1.80;;;;;;;17.87;74.53;100362.78;7383038;19;20033;-75
2024/04/06 07:23:27;;;;;;;3.53;1.60;;;;;;;17.77;72.19;100347.56;7380957;19;20022;-75
2024/04/06 07:25:56;;;;;;;3.85;1.70;;;;;;;17.83;72.76;100345.25;7376546;19;20136;-76
2024/04/06 07:28:22;;;;;;;4.33;1.60;;;;;;;18.03;74.07;100356.25;7387004;19;20007;-74
2024/04/06 07:30:47;;;;;;;2.65;1.60;;;;;;;17.88;72.94;100308.25;7382416;19;20256;-70
2024/04/06 07:33:13;;;;;;;2.47;1.42;;;;;;;18.27;68.43;100370.38;7381725;19;20042;-70
2024/04/06 07:35:39;;;;;;;7.65;1.67;;;;;;;18.28;68.13;100372.06;7382936;19;20014;-71
2024/04/06 07:38:06;;;;;;;2.95;1.10;;;;;;;18.19;66.57;100346.88;7390976;19;20010;-70
2024/04/06 07:40:32;;;;;;;3.75;1.63;;;;;;;18.24;66.66;100354.56;7388321;19;20047;-72
2024/04/06 07:43:00;;;;;;;2.35;1.40;;;;;;;18.18;67.44;100355.03;7387812;19;20010;-70
2024/04/06 07:45:26;;;;;;;3.38;1.50;;;;;;;18.18;67.64;100361.25;7384790;19;20011;-71
2024/04/06 07:47:52;;;;;;;3.47;1.33;;;;;;;18.07;67.21;100355.88;7386712;19;20328;-69
2024/04/06 07:50:18;;;;;;;6.18;1.25;;;;;;;17.71;66.57;100331.97;7389336;19;20010;-71
2024/04/06 07:52:45;;;;;;;3.47;1.35;;;;;;;17.83;66.53;100341.72;7387589;19;20007;-68
2024/04/06 07:55:11;;;;;;;2.97;0.95;;;;;;;17.92;66.77;100353.56;7381698;19;20010;-72
2024/04/06 07:57:37;;;;;;;2.53;1.05;;;;;;;17.95;66.13;100338.06;7387210;19;20018;-69
2024/04/06 08:00:03;;;;;;;3.13;1.23;;;;;;;17.99;66.10;100338.69;7386052;19;20031;-69
2024/04/06 08:02:31;;;;;;;3.13;1.15;;;;;;;17.77;65.67;100264.53;7383585;19;20010;-72
2024/04/06 08:04:58;;;;;;;4.78;1.70;;;;;;;18.47;66.00;100332.09;7384265;19;20475;-71
2024/04/06 08:07:24;;;;;;;2.28;1.30;;;;;;;19.03;63.45;100350.81;7389054;19;20031;-69
2024/04/06 08:09:55;;;;;;;4.38;1.40;;;;;;;18.99;59.23;100305.56;7386060;19;20425;-69
2024/04/06 08:12:21;;;;;;;8.68;1.38;;;;;;;19.16;58.57;100348.81;7383676;19;20345;-71
2024/04/06 08:14:46;;;;;;;2.70;1.13;;;;;;;19.16;58.38;100353.31;7383039;19;20025;-67
2024/04/06 08:17:12;;;;;;;3.50;1.10;;;;;;;18.96;58.98;100343.38;7382989;19;20070;-70
2024/04/06 08:19:37;;;;;;;2.78;0.88;;;;;;;18.98;58.41;100333.38;7385989;19;20425;-70
2024/04/06 08:22:03;;;;;;;2.42;1.33;;;;;;;19.06;58.00;100331.75;7380357;19;20018;-70
2024/04/06 08:24:29;;;;;;;1.85;1.23;;;;;;;19.31;57.45;100335.06;7383702;19;20013;-69
2024/04/06 08:26:55;;;;;;;4.82;1.50;;;;;;;19.58;56.89;100325.56;7384805;19;20007;-69
2024/04/06 08:29:21;;;;;;;1.85;1.05;;;;;;;19.79;53.84;100320.19;7385232;19;20354;-69
2024/04/06 08:31:47;;;;;;;3.75;1.00;;;;;;;19.82;54.12;100303.81;7384992;19;20044;-70
2024/04/06 08:34:13;;;;;;;3.28;0.90;;;;;;;20.06;52.81;100295.41;7379455;19;20021;-69
2024/04/06 08:36:38;;;;;;;1.65;0.82;;;;;;;20.50;52.07;100315.69;7384425;19;20006;-70
2024/04/06 08:39:04;;;;;;;1.58;1.02;;;;;;;20.63;51.68;100294.75;7385093;19;20010;-69
2024/04/06 08:41:32;;;;;;;3.70;1.30;;;;;;;21.00;50.58;100286.88;7387036;19;20515;-68
2024/04/06 08:43:58;;;;;;;3.53;1.00;;;;;;;21.21;47.90;100278.69;7378654;19;20479;-68
2024/04/06 08:46:25;;;;;;;2.78;1.20;;;;;;;21.47;48.89;100278.09;7376374;19;20093;-70
2024/04/06 08:48:50;;;;;;;3.00;1.00;;;;;;;21.91;47.39;100304.34;7375538;19;20010;-70
2024/04/06 08:51:20;;;;;;;2.63;1.20;;;;;;;21.66;47.14;100305.00;7385571;19;20491;-70
2024/04/06 08:53:46;;;;;;;4.18;1.00;;;;;;;21.01;48.18;100274.28;7385563;19;20025;-70
2024/04/06 08:56:15;;;;;;;2.83;0.90;;;;;;;20.88;48.91;100271.88;7384249;19;20014;-69
2024/04/06 08:58:41;;;;;;;3.28;1.23;;;;;;;20.95;47.82;100286.44;7385942;19;20451;-71
2024/04/06 09:01:07;;;;;;;2.08;1.17;;;;;;;20.79;49.02;100279.91;7380118;19;20018;-71
2024/04/06 09:03:32;;;;;;;1.92;0.80;;;;;;;20.91;49.34;100292.28;7383570;19;20022;-71
2024/04/06 09:05:58;;;;;;;1.65;0.85;;;;;;;20.85;49.25;100293.66;7386289;19;20017;-70
2024/04/06 09:08:24;;;;;;;2.25;1.00;;;;;;;20.74;48.85;100263.34;7385832;19;20018;-70
2024/04/06 09:10:57;;;;;;;2.85;1.23;;;;;;;20.88;48.83;100290.72;7388189;19;20282;-69
2024/04/06 09:13:23;;;;;;;1.98;0.95;;;;;;;20.78;48.85;100262.09;7386715;19;20471;-70
2024/04/06 09:15:49;;;;;;;3.25;1.08;;;;;;;20.92;48.81;100280.53;7382899;19;20010;-70
2024/04/06 09:18:16;;;;;;;3.25;1.10;;;;;;;20.93;46.54;100277.69;7387499;19;20462;-71
2024/04/06 09:20:51;;;;;;;1.97;0.83;;;;;;;20.87;45.86;100274.69;7386975;19;20026;-70
2024/04/06 09:23:17;;;;;;;2.42;1.05;;;;;;;20.69;45.80;100250.31;7386584;19;20014;-70
2024/04/06 09:25:43;;;;;;;2.25;0.90;;;;;;;20.77;44.98;100253.16;7382369;19;20014;-70
2024/04/06 09:28:13;;;;;;;1.83;1.10;;;;;;;20.92;44.91;100269.75;7382754;19;20025;-69
2024/04/06 09:30:43;;;;;;;1.77;0.75;;;;;;;21.02;45.23;100273.28;7384165;19;20014;-69
2024/04/06 09:33:10;;;;;;;1.97;0.80;;;;;;;20.98;44.79;100247.63;7383805;19;20047;-69
2024/04/06 09:35:38;;;;;;;2.25;1.08;;;;;;;21.21;44.40;100257.16;7377937;19;20965;-69
2024/04/06 09:38:07;;;;;;;1.95;0.82;;;;;;;21.22;44.05;100261.56;7382552;19;20014;-69
2024/04/06 09:40:33;;;;;;;2.72;0.95;;;;;;;20.84;44.32;100178.94;7362328;19;20036;-70
2024/04/06 09:42:59;;;;;;;1.48;0.88;;;;;;;21.41;43.15;100266.03;7385595;19;20542;-69
2024/04/06 09:45:25;;;;;;;1.33;0.93;;;;;;;21.49;43.59;100246.47;7376424;19;20090;-69
2024/04/06 09:47:55;;;;;;;1.70;1.05;;;;;;;21.79;44.32;100269.66;7384396;19;20047;-75
2024/04/06 09:50:21;;;;;;;2.00;1.10;;;;;;;21.85;43.08;100248.34;7380237;19;20010;-69
2024/04/06 09:52:47;;;;;;;4.03;1.00;;;;;;;21.77;42.12;100244.69;7384242;19;20621;-69
2024/04/06 09:55:13;;;;;;;2.67;0.90;;;;;;;21.89;41.75;100260.53;7377989;19;20022;-70
2024/04/06 09:57:38;;;;;;;2.53;0.82;;;;;;;22.01;43.18;100256.69;7385779;19;20011;-70
2024/04/06 10:00:06;;;;;;;2.10;1.10;;;;;;;22.06;42.48;100237.34;7382817;19;20010;-69
2024/04/06 10:02:33;;;;;;;1.40;0.80;;;;;;;22.27;41.79;100258.69;7381291;19;20033;-71
2024/04/06 10:05:00;;;;;;;3.22;1.38;;;;;;;22.25;41.54;100258.00;7379995;19;20014;-70
2024/04/06 10:07:30;;;;;;;3.53;0.88;;;;;;;22.09;41.20;100242.44;7379807;19;20374;-69
2024/04/06 10:10:18;;;;;;;1.93;0.90;;;;;;;22.17;41.98;100258.75;7376485;19;20589;-73
2024/04/06 10:12:47;;;;;;;2.20;0.90;;;;;;;22.15;42.21;100249.09;7384965;19;20025;-75
2024/04/06 10:15:18;;;;;;;2.25;1.17;;;;;;;22.35;42.78;100258.81;7380903;19;20010;-76
2024/04/06 10:17:48;;;;;;;1.95;1.02;;;;;;;22.15;44.35;100201.41;7383997;19;20017;-75
2024/04/06 10:20:22;;;;;;;2.22;0.98;;;;;;;22.52;42.29;100249.00;7379765;19;20014;-73
2024/04/06 10:22:53;;;;;;;3.47;1.10;;;;;;;22.69;43.21;100261.69;7383519;19;20014;-70
2024/04/06 10:25:26;;;;;;;2.05;1.00;;;;;;;22.84;41.92;100259.31;7377148;19;20018;-67
2024/04/06 10:28:08;;;;;;;2.25;1.00;;;;;;;22.89;44.02;100257.03;7384297;19;20035;-69
2024/04/06 10:30:37;;;;;;;1.70;1.20;;;;;;;22.85;41.16;100239.44;7383996;19;20014;-77
2024/04/06 10:33:03;;;;;;;3.50;1.20;;;;;;;22.85;41.83;100217.84;7388705;19;20011;-73
2024/04/06 10:35:28;;;;;;;3.88;1.35;;;;;;;22.98;42.08;100212.91;7377156;19;20039;-71
2024/04/06 10:37:55;;;;;;;2.10;1.10;;;;;;;23.06;42.79;100212.97;7383530;19;20015;-71
2024/04/06 10:40:33;;;;;;;3.38;1.42;;;;;;;23.29;42.74;100243.88;7379316;19;20050;-70
2024/04/06 10:43:01;;;;;;;6.70;1.60;;;;;;;23.25;43.08;100239.81;7383911;19;20010;-72
2024/04/06 10:45:27;;;;;;;2.40;1.00;;;;;;;23.09;41.56;100226.16;7378413;19;20006;-70
2024/04/06 10:47:53;;;;;;;6.75;1.85;;;;;;;23.08;42.31;100235.25;7386014;19;20017;-76
2024/04/06 10:50:20;;;;;;;2.65;1.77;;;;;;;22.88;42.40;100199.47;7383809;19;20011;-74
2024/04/06 10:52:47;;;;;;;4.03;1.70;;;;;;;22.84;42.97;100216.13;7381842;19;20011;-75
2024/04/06 10:55:19;;;;;;;3.08;1.73;;;;;;;22.95;43.17;100232.97;7379930;19;20055;-77
2024/04/06 10:57:45;;;;;;;4.90;1.98;;;;;;;22.84;42.45;100179.19;7383631;19;20017;-75
2024/04/06 11:00:17;;;;;;;3.80;1.55;;;;;;;23.48;42.72;100231.16;7382214;19;20015;-78
2024/04/06 11:02:44;;;;;;;4.38;1.25;;;;;;;23.59;40.92;100193.09;7390275;19;20587;-79
2024/04/06 11:05:09;;;;;;;2.25;1.10;;;;;;;23.99;40.10;100222.19;7393346;19;20046;-77
2024/04/06 11:07:38;;;;;;;4.68;1.20;;;;;;;23.89;40.27;100173.66;7399456;19;20011;-78
2024/04/06 11:10:09;;;;;;;2.17;1.30;;;;;;;24.16;40.30;100185.22;7405771;19;20013;-80
2024/04/06 11:12:38;;;;;;;4.03;1.30;;;;;;;24.38;39.77;100192.78;7384321;19;20071;-78
2024/04/06 11:15:07;;;;;;;1.98;1.30;;;;;;;24.56;40.30;100196.19;7408894;19;20018;-77
2024/04/06 11:17:32;;;;;;;2.10;1.30;;;;;;;24.33;39.74;100149.13;7395641;19;20014;-79